sensor_id;sensor_type;location;lat;lon;timestamp;P1;durP1;ratioP1;P2;durP2;ratioP2
77220;SDS011;66217;50.004;8.266;2023-03-20T00:02:49;10.73;;;6.60;;
77220;SDS011;66217;50.004;8.266;2023-03-20T00:05:16;8.98;;;5.85;;
77220;SDS011;66217;50.004;8.266;2023-03-20T00:07:46;11.07;;;6.43;;
77220;SDS011;66217;50.004;8.266;2023-03-20T00:10:12;9.88;;;6.43;;
77220;SDS011;66217;50.004;8.266;2023-03-20T00:12:37;11.70;;;6.32;;
77220;SDS011;66217;50.004;8.266;2023-03-20T00:15:04;11.05;;;6.82;;
77220;SDS011;66217;50.004;8.266;2023-03-20T00:17:31;9.27;;;6.07;;
77220;SDS011;66217;50.004;8.266;2023-03-20T00:19:57;11.73;;;5.75;;
77220;SDS011;66217;50.004;8.266;2023-03-20T00:22:22;9.32;;;6.20;;
77220;SDS011;66217;50.004;8.266;2023-03-20T00:24:48;9.07;;;6.32;;
77220;SDS011;66217;50.004;8.266;2023-03-20T00:27:14;9.27;;;6.43;;
77220;SDS011;66217;50.004;8.266;2023-03-20T00:29:40;11.57;;;6.57;;
77220;SDS011;66217;50.004;8.266;2023-03-20T00:32:13;15.10;;;6.15;;
77220;SDS011;66217;50.004;8.266;2023-03-20T00:34:39;10.38;;;6.20;;
77220;SDS011;66217;50.004;8.266;2023-03-20T00:37:05;9.38;;;5.82;;
77220;SDS011;66217;50.004;8.266;2023-03-20T00:39:30;10.02;;;6.03;;
77220;SDS011;66217;50.004;8.266;2023-03-20T00:42:00;9.80;;;6.45;;
77220;SDS011;66217;50.004;8.266;2023-03-20T00:44:35;9.88;;;6.60;;
77220;SDS011;66217;50.004;8.266;2023-03-20T00:47:22;8.70;;;6.10;;
77220;SDS011;66217;50.004;8.266;2023-03-20T00:49:49;9.55;;;6.00;;
77220;SDS011;66217;50.004;8.266;2023-03-20T00:52:16;8.50;;;5.68;;
77220;SDS011;66217;50.004;8.266;2023-03-20T00:54:43;9.32;;;6.13;;
77220;SDS011;66217;50.004;8.266;2023-03-20T00:57:13;9.20;;;6.00;;
77220;SDS011;66217;50.004;8.266;2023-03-20T01:02:32;9.65;;;6.32;;
77220;SDS011;66217;50.004;8.266;2023-03-20T01:04:58;7.30;;;5.40;;
77220;SDS011;66217;50.004;8.266;2023-03-20T01:07:24;11.25;;;5.93;;
77220;SDS011;66217;50.004;8.266;2023-03-20T01:09:50;10.32;;;6.38;;
77220;SDS011;66217;50.004;8.266;2023-03-20T01:12:17;9.65;;;6.05;;
77220;SDS011;66217;50.004;8.266;2023-03-20T01:14:43;11.60;;;6.15;;
77220;SDS011;66217;50.004;8.266;2023-03-20T01:17:10;10.80;;;6.18;;
77220;SDS011;66217;50.004;8.266;2023-03-20T01:19:42;10.23;;;6.50;;
77220;SDS011;66217;50.004;8.266;2023-03-20T01:22:07;10.25;;;6.30;;
77220;SDS011;66217;50.004;8.266;2023-03-20T01:24:33;12.48;;;7.30;;
77220;SDS011;66217;50.004;8.266;2023-03-20T01:26:59;9.10;;;5.90;;
77220;SDS011;66217;50.004;8.266;2023-03-20T01:29:27;9.00;;;5.63;;
77220;SDS011;66217;50.004;8.266;2023-03-20T01:31:53;9.60;;;6.55;;
77220;SDS011;66217;50.004;8.266;2023-03-20T01:34:21;9.77;;;6.50;;
77220;SDS011;66217;50.004;8.266;2023-03-20T01:36:49;7.97;;;6.15;;
77220;SDS011;66217;50.004;8.266;2023-03-20T01:39:16;11.88;;;6.55;;
77220;SDS011;66217;50.004;8.266;2023-03-20T01:41:43;9.45;;;6.35;;
77220;SDS011;66217;50.004;8.266;2023-03-20T01:44:20;10.00;;;6.07;;
77220;SDS011;66217;50.004;8.266;2023-03-20T01:46:57;10.75;;;6.22;;
77220;SDS011;66217;50.004;8.266;2023-03-20T01:51:51;8.45;;;5.70;;
77220;SDS011;66217;50.004;8.266;2023-03-20T01:54:20;8.98;;;6.00;;
77220;SDS011;66217;50.004;8.266;2023-03-20T01:59:33;9.38;;;5.90;;
77220;SDS011;66217;50.004;8.266;2023-03-20T02:02:01;10.00;;;6.60;;
77220;SDS011;66217;50.004;8.266;2023-03-20T02:04:32;8.98;;;5.85;;
77220;SDS011;66217;50.004;8.266;2023-03-20T02:07:12;10.45;;;6.30;;
77220;SDS011;66217;50.004;8.266;2023-03-20T02:09:56;9.90;;;6.47;;
77220;SDS011;66217;50.004;8.266;2023-03-20T02:12:33;10.30;;;6.57;;
77220;SDS011;66217;50.004;8.266;2023-03-20T02:15:00;8.20;;;5.88;;
77220;SDS011;66217;50.004;8.266;2023-03-20T02:17:45;9.60;;;6.47;;
77220;SDS011;66217;50.004;8.266;2023-03-20T02:20:17;13.90;;;7.25;;
77220;SDS011;66217;50.004;8.266;2023-03-20T02:26:02;11.45;;;6.10;;
77220;SDS011;66217;50.004;8.266;2023-03-20T02:45:11;9.90;;;5.22;;
77220;SDS011;66217;50.004;8.266;2023-03-20T02:50:23;7.60;;;5.55;;
77220;SDS011;66217;50.004;8.266;2023-03-20T02:55:52;7.72;;;5.82;;
77220;SDS011;66217;50.004;8.266;2023-03-20T02:58:25;9.73;;;5.80;;
77220;SDS011;66217;50.004;8.266;2023-03-20T03:03:25;10.40;;;5.95;;
77220;SDS011;66217;50.004;8.266;2023-03-20T03:05:54;8.80;;;5.65;;
77220;SDS011;66217;50.004;8.266;2023-03-20T03:08:23;7.57;;;5.78;;
77220;SDS011;66217;50.004;8.266;2023-03-20T03:10:52;9.50;;;6.35;;
77220;SDS011;66217;50.004;8.266;2023-03-20T03:15:50;9.25;;;6.53;;
77220;SDS011;66217;50.004;8.266;2023-03-20T03:18:19;10.30;;;6.35;;
77220;SDS011;66217;50.004;8.266;2023-03-20T03:20:46;13.00;;;6.80;;
77220;SDS011;66217;50.004;8.266;2023-03-20T03:23:17;11.55;;;7.25;;
77220;SDS011;66217;50.004;8.266;2023-03-20T03:25:48;9.70;;;6.50;;
77220;SDS011;66217;50.004;8.266;2023-03-20T03:28:25;10.50;;;6.68;;
77220;SDS011;66217;50.004;8.266;2023-03-20T03:30:54;11.75;;;6.68;;
77220;SDS011;66217;50.004;8.266;2023-03-20T03:33:22;11.68;;;6.68;;
77220;SDS011;66217;50.004;8.266;2023-03-20T03:35:51;10.10;;;6.63;;
77220;SDS011;66217;50.004;8.266;2023-03-20T03:46:47;10.40;;;6.78;;
77220;SDS011;66217;50.004;8.266;2023-03-20T03:49:19;9.75;;;7.13;;
77220;SDS011;66217;50.004;8.266;2023-03-20T03:51:49;10.90;;;6.82;;
77220;SDS011;66217;50.004;8.266;2023-03-20T03:54:21;12.43;;;7.05;;
77220;SDS011;66217;50.004;8.266;2023-03-20T03:57:09;10.82;;;6.25;;
77220;SDS011;66217;50.004;8.266;2023-03-20T03:59:39;9.90;;;6.18;;
77220;SDS011;66217;50.004;8.266;2023-03-20T04:02:05;10.80;;;6.63;;
77220;SDS011;66217;50.004;8.266;2023-03-20T04:04:33;10.13;;;6.68;;
77220;SDS011;66217;50.004;8.266;2023-03-20T04:07:00;10.23;;;6.10;;
77220;SDS011;66217;50.004;8.266;2023-03-20T04:09:26;10.30;;;6.85;;
77220;SDS011;66217;50.004;8.266;2023-03-20T04:11:52;10.68;;;7.35;;
77220;SDS011;66217;50.004;8.266;2023-03-20T04:14:18;11.63;;;6.68;;
77220;SDS011;66217;50.004;8.266;2023-03-20T04:16:44;10.98;;;6.97;;
77220;SDS011;66217;50.004;8.266;2023-03-20T04:19:10;9.95;;;6.38;;
77220;SDS011;66217;50.004;8.266;2023-03-20T04:21:36;12.70;;;6.95;;
77220;SDS011;66217;50.004;8.266;2023-03-20T04:24:01;11.65;;;7.40;;
77220;SDS011;66217;50.004;8.266;2023-03-20T04:26:27;12.43;;;7.32;;
77220;SDS011;66217;50.004;8.266;2023-03-20T04:28:54;10.35;;;6.63;;
77220;SDS011;66217;50.004;8.266;2023-03-20T04:31:38;10.85;;;7.10;;
77220;SDS011;66217;50.004;8.266;2023-03-20T04:34:12;11.98;;;7.60;;
77220;SDS011;66217;50.004;8.266;2023-03-20T04:36:59;11.65;;;7.50;;
77220;SDS011;66217;50.004;8.266;2023-03-20T04:39:35;20.08;;;8.70;;
77220;SDS011;66217;50.004;8.266;2023-03-20T04:42:04;15.57;;;8.80;;
77220;SDS011;66217;50.004;8.266;2023-03-20T04:44:30;15.10;;;8.52;;
77220;SDS011;66217;50.004;8.266;2023-03-20T04:46:56;17.00;;;9.43;;
77220;SDS011;66217;50.004;8.266;2023-03-20T04:49:22;18.27;;;10.00;;
77220;SDS011;66217;50.004;8.266;2023-03-20T04:51:48;23.30;;;10.23;;
77220;SDS011;66217;50.004;8.266;2023-03-20T04:54:17;21.52;;;10.85;;
77220;SDS011;66217;50.004;8.266;2023-03-20T04:56:42;19.15;;;10.05;;
77220;SDS011;66217;50.004;8.266;2023-03-20T04:59:12;20.23;;;9.88;;
77220;SDS011;66217;50.004;8.266;2023-03-20T05:01:38;20.42;;;11.25;;
77220;SDS011;66217;50.004;8.266;2023-03-20T05:04:04;23.23;;;11.50;;
77220;SDS011;66217;50.004;8.266;2023-03-20T05:06:31;23.30;;;11.95;;
77220;SDS011;66217;50.004;8.266;2023-03-20T05:08:58;24.02;;;11.85;;
77220;SDS011;66217;50.004;8.266;2023-03-20T05:11:25;26.63;;;12.70;;
77220;SDS011;66217;50.004;8.266;2023-03-20T05:14:00;28.50;;;14.20;;
77220;SDS011;66217;50.004;8.266;2023-03-20T05:16:49;31.45;;;14.77;;
77220;SDS011;66217;50.004;8.266;2023-03-20T05:19:21;33.25;;;16.25;;
77220;SDS011;66217;50.004;8.266;2023-03-20T05:22:05;42.80;;;16.30;;
77220;SDS011;66217;50.004;8.266;2023-03-20T05:24:57;48.20;;;17.52;;
77220;SDS011;66217;50.004;8.266;2023-03-20T05:28:00;40.63;;;16.02;;
77220;SDS011;66217;50.004;8.266;2023-03-20T05:30:35;41.28;;;17.42;;
77220;SDS011;66217;50.004;8.266;2023-03-20T05:33:19;42.35;;;17.80;;
77220;SDS011;66217;50.004;8.266;2023-03-20T05:36:05;37.15;;;15.45;;
77220;SDS011;66217;50.004;8.266;2023-03-20T05:39:10;45.67;;;17.10;;
77220;SDS011;66217;50.004;8.266;2023-03-20T05:41:57;42.75;;;17.48;;
77220;SDS011;66217;50.004;8.266;2023-03-20T05:44:33;41.65;;;15.93;;
77220;SDS011;66217;50.004;8.266;2023-03-20T05:47:21;42.33;;;16.75;;
77220;SDS011;66217;50.004;8.266;2023-03-20T05:49:56;42.47;;;16.50;;
77220;SDS011;66217;50.004;8.266;2023-03-20T05:52:34;38.85;;;16.08;;
77220;SDS011;66217;50.004;8.266;2023-03-20T05:55:05;41.17;;;16.55;;
77220;SDS011;66217;50.004;8.266;2023-03-20T05:57:37;37.92;;;16.13;;
77220;SDS011;66217;50.004;8.266;2023-03-20T06:00:24;37.42;;;16.88;;
77220;SDS011;66217;50.004;8.266;2023-03-20T06:03:10;36.00;;;15.05;;
77220;SDS011;66217;50.004;8.266;2023-03-20T06:05:53;35.75;;;16.02;;
77220;SDS011;66217;50.004;8.266;2023-03-20T06:08:18;39.03;;;15.98;;
77220;SDS011;66217;50.004;8.266;2023-03-20T06:10:44;38.97;;;15.88;;
77220;SDS011;66217;50.004;8.266;2023-03-20T06:13:09;37.10;;;16.30;;
77220;SDS011;66217;50.004;8.266;2023-03-20T06:15:34;41.47;;;18.15;;
77220;SDS011;66217;50.004;8.266;2023-03-20T06:18:09;33.70;;;16.60;;
77220;SDS011;66217;50.004;8.266;2023-03-20T06:20:35;32.70;;;15.73;;
77220;SDS011;66217;50.004;8.266;2023-03-20T06:23:02;37.65;;;17.45;;
77220;SDS011;66217;50.004;8.266;2023-03-20T06:25:28;38.60;;;16.80;;
77220;SDS011;66217;50.004;8.266;2023-03-20T06:27:54;36.08;;;17.00;;
77220;SDS011;66217;50.004;8.266;2023-03-20T06:30:19;40.50;;;17.80;;
77220;SDS011;66217;50.004;8.266;2023-03-20T06:32:45;36.47;;;16.27;;
77220;SDS011;66217;50.004;8.266;2023-03-20T06:35:11;44.22;;;17.38;;
77220;SDS011;66217;50.004;8.266;2023-03-20T06:37:42;48.30;;;20.55;;
77220;SDS011;66217;50.004;8.266;2023-03-20T06:40:12;35.40;;;17.10;;
77220;SDS011;66217;50.004;8.266;2023-03-20T06:42:38;43.70;;;18.23;;
77220;SDS011;66217;50.004;8.266;2023-03-20T06:45:05;36.80;;;16.83;;
77220;SDS011;66217;50.004;8.266;2023-03-20T06:47:41;35.67;;;16.17;;
77220;SDS011;66217;50.004;8.266;2023-03-20T06:50:08;36.22;;;15.82;;
77220;SDS011;66217;50.004;8.266;2023-03-20T06:52:34;41.50;;;16.77;;
77220;SDS011;66217;50.004;8.266;2023-03-20T06:55:23;35.30;;;15.90;;
77220;SDS011;66217;50.004;8.266;2023-03-20T06:57:48;33.13;;;15.15;;
77220;SDS011;66217;50.004;8.266;2023-03-20T07:00:16;38.17;;;16.13;;
77220;SDS011;66217;50.004;8.266;2023-03-20T07:02:41;35.97;;;16.38;;
77220;SDS011;66217;50.004;8.266;2023-03-20T07:05:10;37.50;;;16.83;;
77220;SDS011;66217;50.004;8.266;2023-03-20T07:07:36;40.25;;;17.38;;
77220;SDS011;66217;50.004;8.266;2023-03-20T07:10:02;38.08;;;16.88;;
77220;SDS011;66217;50.004;8.266;2023-03-20T07:12:28;37.97;;;16.98;;
77220;SDS011;66217;50.004;8.266;2023-03-20T07:14:57;41.28;;;17.90;;
77220;SDS011;66217;50.004;8.266;2023-03-20T07:17:23;41.35;;;17.30;;
77220;SDS011;66217;50.004;8.266;2023-03-20T07:19:48;40.13;;;17.38;;
77220;SDS011;66217;50.004;8.266;2023-03-20T07:22:21;39.40;;;17.42;;
77220;SDS011;66217;50.004;8.266;2023-03-20T07:24:50;46.10;;;18.70;;
77220;SDS011;66217;50.004;8.266;2023-03-20T07:27:17;41.78;;;18.67;;
77220;SDS011;66217;50.004;8.266;2023-03-20T07:29:43;42.47;;;16.58;;
77220;SDS011;66217;50.004;8.266;2023-03-20T07:32:12;42.92;;;17.75;;
77220;SDS011;66217;50.004;8.266;2023-03-20T07:34:45;44.38;;;17.17;;
77220;SDS011;66217;50.004;8.266;2023-03-20T07:37:11;39.17;;;18.52;;
77220;SDS011;66217;50.004;8.266;2023-03-20T07:39:38;40.72;;;18.27;;
77220;SDS011;66217;50.004;8.266;2023-03-20T07:42:21;41.05;;;17.52;;
77220;SDS011;66217;50.004;8.266;2023-03-20T07:44:56;39.63;;;17.08;;
77220;SDS011;66217;50.004;8.266;2023-03-20T07:47:22;39.08;;;17.38;;
77220;SDS011;66217;50.004;8.266;2023-03-20T07:49:47;43.40;;;18.98;;
77220;SDS011;66217;50.004;8.266;2023-03-20T07:52:13;39.80;;;17.95;;
77220;SDS011;66217;50.004;8.266;2023-03-20T07:54:38;44.95;;;19.52;;
77220;SDS011;66217;50.004;8.266;2023-03-20T07:57:03;39.03;;;18.08;;
77220;SDS011;66217;50.004;8.266;2023-03-20T07:59:29;41.08;;;18.08;;
77220;SDS011;66217;50.004;8.266;2023-03-20T08:01:55;41.45;;;19.30;;
77220;SDS011;66217;50.004;8.266;2023-03-20T08:04:21;43.53;;;19.27;;
77220;SDS011;66217;50.004;8.266;2023-03-20T08:06:47;43.45;;;20.63;;
77220;SDS011;66217;50.004;8.266;2023-03-20T08:09:17;47.10;;;21.45;;
77220;SDS011;66217;50.004;8.266;2023-03-20T08:11:42;44.75;;;21.15;;
77220;SDS011;66217;50.004;8.266;2023-03-20T08:14:08;45.75;;;19.90;;
77220;SDS011;66217;50.004;8.266;2023-03-20T08:16:33;48.40;;;20.40;;
77220;SDS011;66217;50.004;8.266;2023-03-20T08:18:58;48.63;;;20.98;;
77220;SDS011;66217;50.004;8.266;2023-03-20T08:21:28;50.13;;;21.58;;
77220;SDS011;66217;50.004;8.266;2023-03-20T08:23:54;47.70;;;21.58;;
77220;SDS011;66217;50.004;8.266;2023-03-20T08:26:20;50.17;;;22.33;;
77220;SDS011;66217;50.004;8.266;2023-03-20T08:28:45;45.67;;;20.17;;
77220;SDS011;66217;50.004;8.266;2023-03-20T08:31:11;44.03;;;20.08;;
77220;SDS011;66217;50.004;8.266;2023-03-20T08:33:36;51.92;;;21.90;;
77220;SDS011;66217;50.004;8.266;2023-03-20T08:36:02;44.20;;;20.75;;
77220;SDS011;66217;50.004;8.266;2023-03-20T08:38:28;42.45;;;20.08;;
77220;SDS011;66217;50.004;8.266;2023-03-20T08:40:53;45.15;;;21.25;;
77220;SDS011;66217;50.004;8.266;2023-03-20T08:43:19;46.42;;;20.02;;
77220;SDS011;66217;50.004;8.266;2023-03-20T08:45:44;47.25;;;19.30;;
77220;SDS011;66217;50.004;8.266;2023-03-20T08:48:10;39.35;;;19.25;;
77220;SDS011;66217;50.004;8.266;2023-03-20T08:50:35;42.05;;;18.95;;
77220;SDS011;66217;50.004;8.266;2023-03-20T08:53:02;38.47;;;18.48;;
77220;SDS011;66217;50.004;8.266;2023-03-20T08:55:28;36.85;;;18.13;;
77220;SDS011;66217;50.004;8.266;2023-03-20T08:57:54;34.22;;;17.20;;
77220;SDS011;66217;50.004;8.266;2023-03-20T09:00:21;34.78;;;17.90;;
77220;SDS011;66217;50.004;8.266;2023-03-20T09:02:47;34.05;;;17.63;;
77220;SDS011;66217;50.004;8.266;2023-03-20T09:05:13;32.45;;;16.40;;
77220;SDS011;66217;50.004;8.266;2023-03-20T09:07:39;33.33;;;16.33;;
77220;SDS011;66217;50.004;8.266;2023-03-20T09:10:05;33.05;;;16.10;;
77220;SDS011;66217;50.004;8.266;2023-03-20T09:12:31;32.33;;;14.57;;
77220;SDS011;66217;50.004;8.266;2023-03-20T09:14:57;28.52;;;13.90;;
77220;SDS011;66217;50.004;8.266;2023-03-20T09:17:22;28.08;;;14.57;;
77220;SDS011;66217;50.004;8.266;2023-03-20T09:19:48;25.83;;;13.68;;
77220;SDS011;66217;50.004;8.266;2023-03-20T09:22:13;27.83;;;14.98;;
77220;SDS011;66217;50.004;8.266;2023-03-20T09:24:39;28.67;;;15.00;;
77220;SDS011;66217;50.004;8.266;2023-03-20T09:27:05;26.30;;;13.57;;
77220;SDS011;66217;50.004;8.266;2023-03-20T09:29:31;26.80;;;13.48;;
77220;SDS011;66217;50.004;8.266;2023-03-20T09:31:56;25.17;;;13.65;;
77220;SDS011;66217;50.004;8.266;2023-03-20T09:34:22;26.85;;;14.30;;
77220;SDS011;66217;50.004;8.266;2023-03-20T09:36:48;25.25;;;12.85;;
77220;SDS011;66217;50.004;8.266;2023-03-20T09:39:14;24.90;;;13.05;;
77220;SDS011;66217;50.004;8.266;2023-03-20T09:41:39;22.88;;;12.73;;
77220;SDS011;66217;50.004;8.266;2023-03-20T09:44:33;21.27;;;11.27;;
77220;SDS011;66217;50.004;8.266;2023-03-20T09:47:15;18.48;;;11.00;;
77220;SDS011;66217;50.004;8.266;2023-03-20T09:50:44;19.25;;;10.65;;
77220;SDS011;66217;50.004;8.266;2023-03-20T09:55:15;18.65;;;9.82;;
77220;SDS011;66217;50.004;8.266;2023-03-20T09:57:52;21.27;;;9.68;;
77220;SDS011;66217;50.004;8.266;2023-03-20T10:05:38;17.75;;;9.02;;
77220;SDS011;66217;50.004;8.266;2023-03-20T10:08:11;16.77;;;7.95;;
77220;SDS011;66217;50.004;8.266;2023-03-20T10:16:12;15.25;;;8.48;;
77220;SDS011;66217;50.004;8.266;2023-03-20T10:21:47;14.52;;;7.63;;
77220;SDS011;66217;50.004;8.266;2023-03-20T10:24:49;15.38;;;8.43;;
77220;SDS011;66217;50.004;8.266;2023-03-20T10:27:25;14.80;;;7.72;;
77220;SDS011;66217;50.004;8.266;2023-03-20T10:30:00;14.60;;;7.82;;
77220;SDS011;66217;50.004;8.266;2023-03-20T10:32:47;13.68;;;7.00;;
77220;SDS011;66217;50.004;8.266;2023-03-20T10:35:24;11.93;;;7.38;;
77220;SDS011;66217;50.004;8.266;2023-03-20T10:37:59;13.63;;;6.60;;
77220;SDS011;66217;50.004;8.266;2023-03-20T10:40:38;10.52;;;6.25;;
77220;SDS011;66217;50.004;8.266;2023-03-20T10:48:41;11.20;;;6.07;;
77220;SDS011;66217;50.004;8.266;2023-03-20T10:51:14;10.45;;;6.03;;
77220;SDS011;66217;50.004;8.266;2023-03-20T10:53:46;8.85;;;5.70;;
77220;SDS011;66217;50.004;8.266;2023-03-20T10:56:15;11.10;;;6.20;;
77220;SDS011;66217;50.004;8.266;2023-03-20T10:58:47;10.48;;;6.20;;
77220;SDS011;66217;50.004;8.266;2023-03-20T11:01:14;11.95;;;5.40;;
77220;SDS011;66217;50.004;8.266;2023-03-20T11:03:42;10.95;;;5.70;;
77220;SDS011;66217;50.004;8.266;2023-03-20T11:06:12;7.82;;;5.10;;
77220;SDS011;66217;50.004;8.266;2023-03-20T11:08:45;11.82;;;5.43;;
77220;SDS011;66217;50.004;8.266;2023-03-20T11:11:12;13.45;;;5.65;;
77220;SDS011;66217;50.004;8.266;2023-03-20T11:13:40;9.32;;;5.40;;
77220;SDS011;66217;50.004;8.266;2023-03-20T11:18:54;7.88;;;4.57;;
77220;SDS011;66217;50.004;8.266;2023-03-20T11:21:21;14.32;;;4.93;;
77220;SDS011;66217;50.004;8.266;2023-03-20T11:23:51;9.50;;;4.68;;
77220;SDS011;66217;50.004;8.266;2023-03-20T11:26:18;10.25;;;5.15;;
77220;SDS011;66217;50.004;8.266;2023-03-20T11:29:05;10.00;;;5.68;;
77220;SDS011;66217;50.004;8.266;2023-03-20T11:31:36;7.32;;;5.00;;
77220;SDS011;66217;50.004;8.266;2023-03-20T11:36:28;11.35;;;4.55;;
77220;SDS011;66217;50.004;8.266;2023-03-20T11:39:03;9.90;;;5.25;;
77220;SDS011;66217;50.004;8.266;2023-03-20T11:42:18;8.73;;;4.38;;
77220;SDS011;66217;50.004;8.266;2023-03-20T11:44:46;9.20;;;4.28;;
77220;SDS011;66217;50.004;8.266;2023-03-20T11:47:21;5.47;;;3.60;;
77220;SDS011;66217;50.004;8.266;2023-03-20T11:49:53;6.25;;;3.38;;
77220;SDS011;66217;50.004;8.266;2023-03-20T11:52:22;7.53;;;3.65;;
77220;SDS011;66217;50.004;8.266;2023-03-20T11:54:53;4.72;;;2.90;;
77220;SDS011;66217;50.004;8.266;2023-03-20T11:57:39;5.90;;;3.17;;
77220;SDS011;66217;50.004;8.266;2023-03-20T12:02:31;5.60;;;3.53;;
77220;SDS011;66217;50.004;8.266;2023-03-20T12:04:58;6.15;;;3.17;;
77220;SDS011;66217;50.004;8.266;2023-03-20T12:07:26;6.07;;;3.15;;
77220;SDS011;66217;50.004;8.266;2023-03-20T12:10:05;5.65;;;2.72;;
77220;SDS011;66217;50.004;8.266;2023-03-20T12:23:25;5.93;;;2.92;;
77220;SDS011;66217;50.004;8.266;2023-03-20T12:26:00;7.15;;;2.67;;
77220;SDS011;66217;50.004;8.266;2023-03-20T12:28:31;5.40;;;3.38;;
77220;SDS011;66217;50.004;8.266;2023-03-20T12:31:12;4.60;;;3.00;;
77220;SDS011;66217;50.004;8.266;2023-03-20T12:34:01;6.05;;;3.63;;
77220;SDS011;66217;50.004;8.266;2023-03-20T12:36:34;10.15;;;3.80;;
77220;SDS011;66217;50.004;8.266;2023-03-20T12:39:04;9.52;;;3.83;;
77220;SDS011;66217;50.004;8.266;2023-03-20T12:41:39;8.55;;;3.35;;
77220;SDS011;66217;50.004;8.266;2023-03-20T12:44:22;4.70;;;3.10;;
77220;SDS011;66217;50.004;8.266;2023-03-20T12:47:14;5.20;;;2.65;;
77220;SDS011;66217;50.004;8.266;2023-03-20T12:50:04;5.03;;;2.55;;
77220;SDS011;66217;50.004;8.266;2023-03-20T12:52:41;9.88;;;3.83;;
77220;SDS011;66217;50.004;8.266;2023-03-20T13:00:23;4.50;;;2.50;;
77220;SDS011;66217;50.004;8.266;2023-03-20T13:03:09;6.32;;;2.30;;
77220;SDS011;66217;50.004;8.266;2023-03-20T13:05:42;7.13;;;2.88;;
77220;SDS011;66217;50.004;8.266;2023-03-20T13:13:55;5.18;;;2.53;;
77220;SDS011;66217;50.004;8.266;2023-03-20T13:16:28;6.03;;;2.70;;
77220;SDS011;66217;50.004;8.266;2023-03-20T13:18:57;3.80;;;2.00;;
77220;SDS011;66217;50.004;8.266;2023-03-20T13:21:44;5.50;;;2.40;;
77220;SDS011;66217;50.004;8.266;2023-03-20T13:29:39;5.05;;;2.63;;
77220;SDS011;66217;50.004;8.266;2023-03-20T13:32:13;5.07;;;2.85;;
77220;SDS011;66217;50.004;8.266;2023-03-20T13:40:37;9.00;;;3.00;;
77220;SDS011;66217;50.004;8.266;2023-03-20T13:45:42;7.80;;;3.70;;
77220;SDS011;66217;50.004;8.266;2023-03-20T13:48:17;4.72;;;2.85;;
77220;SDS011;66217;50.004;8.266;2023-03-20T13:51:10;5.95;;;2.95;;
77220;SDS011;66217;50.004;8.266;2023-03-20T14:02:10;4.20;;;2.60;;
77220;SDS011;66217;50.004;8.266;2023-03-20T14:04:42;8.32;;;3.20;;
77220;SDS011;66217;50.004;8.266;2023-03-20T14:12:59;5.60;;;2.60;;
77220;SDS011;66217;50.004;8.266;2023-03-20T14:15:25;5.18;;;2.72;;
77220;SDS011;66217;50.004;8.266;2023-03-20T14:17:52;6.97;;;2.90;;
77220;SDS011;66217;50.004;8.266;2023-03-20T14:20:37;4.65;;;2.50;;
77220;SDS011;66217;50.004;8.266;2023-03-20T14:23:04;5.00;;;2.85;;
77220;SDS011;66217;50.004;8.266;2023-03-20T14:25:40;6.47;;;2.60;;
77220;SDS011;66217;50.004;8.266;2023-03-20T14:30:40;8.57;;;3.40;;
77220;SDS011;66217;50.004;8.266;2023-03-20T14:33:07;4.80;;;2.60;;
77220;SDS011;66217;50.004;8.266;2023-03-20T14:41:40;5.68;;;2.53;;
77220;SDS011;66217;50.004;8.266;2023-03-20T14:47:01;5.38;;;2.40;;
77220;SDS011;66217;50.004;8.266;2023-03-20T14:57:41;3.45;;;2.08;;
77220;SDS011;66217;50.004;8.266;2023-03-20T15:00:17;5.63;;;2.15;;
77220;SDS011;66217;50.004;8.266;2023-03-20T15:02:45;3.38;;;1.70;;
77220;SDS011;66217;50.004;8.266;2023-03-20T15:05:25;3.22;;;1.75;;
77220;SDS011;66217;50.004;8.266;2023-03-20T15:07:54;4.82;;;1.85;;
77220;SDS011;66217;50.004;8.266;2023-03-20T15:10:45;5.15;;;2.22;;
77220;SDS011;66217;50.004;8.266;2023-03-20T15:13:12;4.35;;;1.80;;
77220;SDS011;66217;50.004;8.266;2023-03-20T15:15:39;2.33;;;1.70;;
77220;SDS011;66217;50.004;8.266;2023-03-20T15:18:16;2.90;;;1.95;;
77220;SDS011;66217;50.004;8.266;2023-03-20T15:20:44;5.78;;;2.40;;
77220;SDS011;66217;50.004;8.266;2023-03-20T15:23:10;3.72;;;1.90;;
77220;SDS011;66217;50.004;8.266;2023-03-20T15:25:39;4.00;;;2.00;;
77220;SDS011;66217;50.004;8.266;2023-03-20T15:28:10;3.53;;;1.77;;
77220;SDS011;66217;50.004;8.266;2023-03-20T15:30:37;4.18;;;1.77;;
77220;SDS011;66217;50.004;8.266;2023-03-20T15:33:03;3.92;;;1.95;;
77220;SDS011;66217;50.004;8.266;2023-03-20T15:35:29;5.57;;;1.80;;
77220;SDS011;66217;50.004;8.266;2023-03-20T15:37:55;5.38;;;2.00;;
77220;SDS011;66217;50.004;8.266;2023-03-20T15:40:29;3.28;;;1.98;;
77220;SDS011;66217;50.004;8.266;2023-03-20T15:42:59;3.58;;;2.00;;
77220;SDS011;66217;50.004;8.266;2023-03-20T15:45:32;4.70;;;2.28;;
77220;SDS011;66217;50.004;8.266;2023-03-20T15:48:06;4.93;;;1.95;;
77220;SDS011;66217;50.004;8.266;2023-03-20T15:50:34;3.22;;;1.95;;
77220;SDS011;66217;50.004;8.266;2023-03-20T15:53:01;4.75;;;2.13;;
77220;SDS011;66217;50.004;8.266;2023-03-20T15:55:27;3.08;;;1.80;;
77220;SDS011;66217;50.004;8.266;2023-03-20T15:57:57;3.22;;;1.95;;
77220;SDS011;66217;50.004;8.266;2023-03-20T16:00:30;5.53;;;2.10;;
77220;SDS011;66217;50.004;8.266;2023-03-20T16:02:58;4.85;;;2.35;;
77220;SDS011;66217;50.004;8.266;2023-03-20T16:05:26;5.03;;;2.13;;
77220;SDS011;66217;50.004;8.266;2023-03-20T16:07:52;9.10;;;2.10;;
77220;SDS011;66217;50.004;8.266;2023-03-20T16:12:46;5.03;;;2.20;;
77220;SDS011;66217;50.004;8.266;2023-03-20T16:15:14;4.88;;;2.33;;
77220;SDS011;66217;50.004;8.266;2023-03-20T16:17:40;7.00;;;2.42;;
77220;SDS011;66217;50.004;8.266;2023-03-20T16:20:11;4.97;;;1.98;;
77220;SDS011;66217;50.004;8.266;2023-03-20T16:22:38;4.50;;;2.40;;
77220;SDS011;66217;50.004;8.266;2023-03-20T16:25:05;5.40;;;2.40;;
77220;SDS011;66217;50.004;8.266;2023-03-20T16:27:34;5.95;;;2.42;;
77220;SDS011;66217;50.004;8.266;2023-03-20T16:30:05;5.55;;;2.72;;
77220;SDS011;66217;50.004;8.266;2023-03-20T16:32:33;5.90;;;2.88;;
77220;SDS011;66217;50.004;8.266;2023-03-20T16:35:01;4.47;;;2.55;;
77220;SDS011;66217;50.004;8.266;2023-03-20T16:37:37;5.80;;;2.55;;
77220;SDS011;66217;50.004;8.266;2023-03-20T16:42:51;6.72;;;2.70;;
77220;SDS011;66217;50.004;8.266;2023-03-20T16:47:48;4.07;;;2.30;;
77220;SDS011;66217;50.004;8.266;2023-03-20T16:52:55;6.20;;;2.33;;
77220;SDS011;66217;50.004;8.266;2023-03-20T16:55:23;4.05;;;2.33;;
77220;SDS011;66217;50.004;8.266;2023-03-20T16:58:05;4.03;;;2.38;;
77220;SDS011;66217;50.004;8.266;2023-03-20T17:00:32;4.75;;;2.55;;
77220;SDS011;66217;50.004;8.266;2023-03-20T17:03:15;4.95;;;2.40;;
77220;SDS011;66217;50.004;8.266;2023-03-20T17:05:49;4.93;;;2.42;;
77220;SDS011;66217;50.004;8.266;2023-03-20T17:08:32;7.78;;;2.42;;
77220;SDS011;66217;50.004;8.266;2023-03-20T17:11:02;4.88;;;2.35;;
77220;SDS011;66217;50.004;8.266;2023-03-20T17:13:29;7.05;;;3.08;;
77220;SDS011;66217;50.004;8.266;2023-03-20T17:15:54;5.68;;;2.30;;
77220;SDS011;66217;50.004;8.266;2023-03-20T17:18:20;7.03;;;2.30;;
77220;SDS011;66217;50.004;8.266;2023-03-20T17:20:46;4.80;;;2.33;;
77220;SDS011;66217;50.004;8.266;2023-03-20T17:23:12;5.75;;;2.10;;
77220;SDS011;66217;50.004;8.266;2023-03-20T17:25:39;6.38;;;2.38;;
77220;SDS011;66217;50.004;8.266;2023-03-20T17:28:04;6.43;;;2.35;;
77220;SDS011;66217;50.004;8.266;2023-03-20T17:30:30;7.93;;;3.00;;
77220;SDS011;66217;50.004;8.266;2023-03-20T17:32:55;5.97;;;2.60;;
77220;SDS011;66217;50.004;8.266;2023-03-20T17:35:21;4.35;;;2.42;;